Time;durP1;ratioP1;P1;durP2;ratioP2;P2;SDS_P1;SDS_P2;PMS_P1;PMS_P2;Temp;Humidity;BMP_temperature;BMP_pressure;BME280_temperature;BME280_humidity;BME280_pressure;Samples;Min_cycle;Max_cycle;Signal;HPM_P1;HPM_P2
2021/05/22 00:02:16;;;;;;;13.93;2.20;;;9.20;99.90;;;;;;5049345;28;20076;-58
2021/05/22 00:04:41;;;;;;;4.90;1.92;;;9.10;99.90;;;;;;5045244;28;20029;-57
2021/05/22 00:07:07;;;;;;;16.83;2.65;;;9.10;99.90;;;;;;5049952;28;20056;-55
2021/05/22 00:09:33;;;;;;;7.10;1.95;;;9.00;99.90;;;;;;5046910;28;20049;-57
2021/05/22 00:11:58;;;;;;;8.07;2.50;;;8.90;99.90;;;;;;5045325;28;20079;-55
2021/05/22 00:14:24;;;;;;;7.13;2.75;;;8.90;99.90;;;;;;5047819;28;20808;-58
2021/05/22 00:16:49;;;;;;;10.55;2.03;;;8.80;99.90;;;;;;5043527;28;20036;-58
2021/05/22 00:19:17;;;;;;;9.45;2.92;;;8.80;99.90;;;;;;5042961;28;20083;-57
2021/05/22 00:21:42;;;;;;;6.82;2.50;;;8.70;99.90;;;;;;5043392;28;20487;-57
2021/05/22 00:24:08;;;;;;;8.68;2.15;;;8.80;99.90;;;;;;5037850;28;20041;-58
2021/05/22 00:26:34;;;;;;;5.95;2.05;;;8.80;99.90;;;;;;5050027;28;20170;-58
2021/05/22 00:29:00;;;;;;;13.25;2.03;;;8.70;99.90;;;;;;5028049;28;20044;-57
2021/05/22 00:31:25;;;;;;;6.43;1.80;;;8.80;99.90;;;;;;5045910;28;20107;-57
2021/05/22 00:33:51;;;;;;;8.18;1.85;;;8.80;99.90;;;;;;5044113;28;20033;-57
2021/05/22 00:36:16;;;;;;;11.32;2.17;;;8.80;99.90;;;;;;5042159;28;20036;-58
2021/05/22 00:38:42;;;;;;;6.97;2.25;;;8.80;99.90;;;;;;5048949;28;20051;-58
2021/05/22 00:41:07;;;;;;;4.30;2.05;;;8.80;99.90;;;;;;5049355;28;20300;-58
2021/05/22 00:43:33;;;;;;;7.40;2.67;;;8.80;99.90;;;;;;5042122;28;20399;-56
2021/05/22 00:45:58;;;;;;;10.40;2.45;;;8.80;99.90;;;;;;5045722;28;20052;-56
2021/05/22 00:48:24;;;;;;;12.10;2.42;;;8.80;99.90;;;;;;5049655;28;20045;-58
2021/05/22 00:50:52;;;;;;;9.48;2.65;;;8.80;99.90;;;;;;5049401;28;20159;-55
2021/05/22 00:53:19;;;;;;;12.80;2.30;;;8.80;99.90;;;;;;5045861;28;20044;-57
2021/05/22 00:55:45;;;;;;;9.25;2.72;;;8.80;99.90;;;;;;5031273;28;20445;-56
2021/05/22 00:58:11;;;;;;;4.20;2.00;;;8.80;99.90;;;;;;5044010;28;20603;-58
2021/05/22 01:00:48;;;;;;;12.60;2.17;;;8.70;99.90;;;;;;5047755;28;20111;-58
2021/05/22 01:03:25;;;;;;;8.88;2.08;;;8.80;99.90;;;;;;5049262;28;20033;-57
2021/05/22 01:05:59;;;;;;;4.30;2.17;;;8.70;99.90;;;;;;5048970;28;20032;-58
2021/05/22 01:08:24;;;;;;;7.95;2.38;;;8.60;99.90;;;;;;5045578;28;20047;-55
2021/05/22 01:11:03;;;;;;;4.78;1.95;;;8.70;99.90;;;;;;5046808;28;20025;-57
2021/05/22 01:13:35;;;;;;;5.68;2.08;;;8.60;99.90;;;;;;5044619;28;20331;-58
2021/05/22 01:16:01;;;;;;;9.77;1.90;;;8.60;99.90;;;;;;5048526;28;20024;-57
2021/05/22 01:18:27;;;;;;;7.70;2.25;;;8.50;99.90;;;;;;5044776;28;20036;-58
2021/05/22 01:21:01;;;;;;;7.35;1.63;;;8.50;99.90;;;;;;5049835;28;20112;-58
2021/05/22 01:23:31;;;;;;;7.82;2.15;;;8.50;99.90;;;;;;5048445;28;20033;-57
2021/05/22 01:25:58;;;;;;;6.47;2.22;;;8.50;99.90;;;;;;5049791;28;20032;-55
2021/05/22 01:28:24;;;;;;;8.88;2.42;;;8.50;99.90;;;;;;5048380;28;20033;-57
2021/05/22 01:30:50;;;;;;;8.63;1.92;;;8.50;99.90;;;;;;5041383;28;20032;-57
2021/05/22 01:33:21;;;;;;;6.15;1.63;;;8.50;99.90;;;;;;5049275;28;20031;-57
2021/05/22 01:35:49;;;;;;;7.55;1.98;;;8.40;99.90;;;;;;5049521;28;20056;-54
2021/05/22 01:38:15;;;;;;;11.48;2.05;;;8.50;99.90;;;;;;5045402;28;20107;-55
2021/05/22 01:40:40;;;;;;;5.50;1.83;;;8.50;99.90;;;;;;5049566;28;20182;-54
2021/05/22 01:43:08;;;;;;;9.13;2.13;;;8.50;99.90;;;;;;5052974;28;20458;-56
2021/05/22 01:45:36;;;;;;;12.38;2.67;;;8.50;99.90;;;;;;5053353;28;20155;-57
2021/05/22 01:48:05;;;;;;;6.13;1.70;;;8.50;99.90;;;;;;5052061;28;20025;-57
2021/05/22 01:50:34;;;;;;;8.50;2.03;;;8.50;99.90;;;;;;5040467;28;20040;-56
2021/05/22 01:53:04;;;;;;;4.78;1.70;;;8.50;99.90;;;;;;5040493;28;20108;-58
2021/05/22 01:55:31;;;;;;;12.35;2.17;;;8.50;99.90;;;;;;5050922;28;20029;-57
2021/05/22 01:57:57;;;;;;;6.22;1.42;;;8.50;99.90;;;;;;5046339;28;20387;-54
2021/05/22 02:00:22;;;;;;;12.05;3.88;;;8.50;99.90;;;;;;5050596;28;20023;-57
2021/05/22 02:03:00;;;;;;;6.25;1.23;;;8.50;99.90;;;;;;5051361;28;20033;-53
2021/05/22 02:05:27;;;;;;;11.35;3.05;;;8.50;99.90;;;;;;5051181;28;20033;-57
2021/05/22 02:07:56;;;;;;;10.70;2.17;;;8.50;99.90;;;;;;5052017;28;20116;-57
2021/05/22 02:10:22;;;;;;;9.88;1.60;;;8.50;99.90;;;;;;5049563;28;20033;-57
2021/05/22 02:12:48;;;;;;;5.72;1.20;;;8.40;99.90;;;;;;5041834;28;20021;-55
2021/05/22 02:15:15;;;;;;;6.25;1.50;;;8.40;99.90;;;;;;5050585;28;20029;-56
2021/05/22 02:17:45;;;;;;;5.45;1.40;;;8.40;99.90;;;;;;5047483;28;20426;-57
2021/05/22 02:20:11;;;;;;;9.70;1.50;;;8.40;99.90;;;;;;5050427;28;20025;-55
2021/05/22 02:22:41;;;;;;;6.45;1.33;;;8.40;99.90;;;;;;5047905;28;20483;-57
2021/05/22 02:25:08;;;;;;;4.38;1.48;;;8.40;99.90;;;;;;5042666;28;20052;-54
2021/05/22 02:27:35;;;;;;;5.80;1.50;;;8.40;99.90;;;;;;5041591;28;20028;-54
2021/05/22 02:30:04;;;;;;;9.95;1.33;;;8.40;99.90;;;;;;5034236;28;20025;-55
2021/05/22 02:32:30;;;;;;;5.68;1.92;;;8.30;99.90;;;;;;5043409;28;20045;-57
2021/05/22 02:34:57;;;;;;;6.13;1.48;;;8.40;99.90;;;;;;5035043;28;20037;-57
2021/05/22 02:39:53;;;;;;;6.15;1.80;;;8.40;99.90;;;;;;5059427;28;20047;-56
2021/05/22 02:42:19;;;;;;;7.60;1.67;;;8.40;99.90;;;;;;5067683;28;20033;-54
2021/05/22 02:44:50;;;;;;;7.68;1.50;;;8.40;99.90;;;;;;5065263;28;20024;-54
2021/05/22 02:47:18;;;;;;;7.43;1.50;;;8.40;99.90;;;;;;5067479;28;20514;-57
2021/05/22 02:49:44;;;;;;;9.40;1.70;;;8.40;99.90;;;;;;5039967;28;20096;-60
2021/05/22 02:52:14;;;;;;;9.60;2.00;;;8.30;99.90;;;;;;5052201;28;20036;-58
2021/05/22 02:54:43;;;;;;;10.20;1.80;;;8.30;99.90;;;;;;5048560;28;20028;-60
2021/05/22 02:57:10;;;;;;;7.82;1.83;;;8.30;99.90;;;;;;5061758;28;20078;-59
2021/05/22 02:59:36;;;;;;;7.13;2.15;;;8.30;99.90;;;;;;5064223;28;20123;-61
2021/05/22 03:02:03;;;;;;;5.82;1.85;;;8.20;99.90;;;;;;5066843;28;20036;-58
2021/05/22 03:04:32;;;;;;;10.00;1.80;;;8.30;99.90;;;;;;5064298;28;20383;-58
2021/05/22 03:06:58;;;;;;;11.93;2.25;;;8.30;99.90;;;;;;5055377;28;20029;-59
2021/05/22 03:09:24;;;;;;;12.32;2.20;;;8.20;99.90;;;;;;5063161;28;20016;-58
2021/05/22 03:11:49;;;;;;;6.00;2.03;;;8.20;99.90;;;;;;5056792;28;20116;-58
2021/05/22 03:14:15;;;;;;;9.75;1.95;;;8.10;99.90;;;;;;5056346;28;20032;-60
2021/05/22 03:16:40;;;;;;;5.80;1.77;;;8.20;99.90;;;;;;5061132;28;20550;-59
2021/05/22 03:19:07;;;;;;;15.02;2.80;;;8.20;99.90;;;;;;5074618;28;20032;-58
2021/05/22 03:21:32;;;;;;;11.95;1.88;;;8.20;99.90;;;;;;5053179;28;20067;-59
2021/05/22 03:23:58;;;;;;;9.43;1.90;;;8.20;99.90;;;;;;5068860;28;20029;-55
2021/05/22 03:26:24;;;;;;;10.05;2.22;;;8.20;99.90;;;;;;5063642;28;20052;-58
2021/05/22 03:28:49;;;;;;;14.90;1.90;;;8.20;99.90;;;;;;5059393;28;20028;-59
2021/05/22 03:31:15;;;;;;;7.13;2.13;;;8.20;99.90;;;;;;5049824;28;20545;-57
2021/05/22 03:33:40;;;;;;;18.98;3.38;;;8.20;99.90;;;;;;5045866;28;20035;-60
2021/05/22 03:36:06;;;;;;;9.85;1.77;;;8.30;99.90;;;;;;5059339;28;20139;-59
2021/05/22 03:38:32;;;;;;;10.35;2.03;;;8.30;99.90;;;;;;5058542;28;20135;-60
2021/05/22 03:40:58;;;;;;;7.10;2.00;;;8.30;99.90;;;;;;5069255;28;20028;-60
2021/05/22 03:43:23;;;;;;;13.25;2.85;;;8.30;99.90;;;;;;5061547;28;20051;-59
2021/05/22 03:45:49;;;;;;;9.57;1.90;;;8.30;99.90;;;;;;5058554;28;20047;-60
2021/05/22 03:48:14;;;;;;;16.58;2.67;;;8.30;99.90;;;;;;5051868;28;20094;-57
2021/05/22 03:50:40;;;;;;;12.23;3.28;;;8.30;99.90;;;;;;5060308;28;20421;-60
2021/05/22 03:53:08;;;;;;;10.23;2.50;;;8.30;99.90;;;;;;5059475;28;20383;-57
2021/05/22 03:55:33;;;;;;;6.57;2.08;;;8.30;99.90;;;;;;5058541;28;20029;-57
2021/05/22 03:57:59;;;;;;;13.93;3.10;;;8.40;99.90;;;;;;5063315;28;20031;-56
2021/05/22 04:00:25;;;;;;;9.23;1.67;;;8.40;99.90;;;;;;5065589;28;20300;-58
2021/05/22 04:02:50;;;;;;;8.85;2.38;;;8.50;99.90;;;;;;5054134;28;20032;-55
2021/05/22 04:05:16;;;;;;;6.03;2.03;;;8.50;99.90;;;;;;5050522;28;20517;-55
2021/05/22 04:07:41;;;;;;;13.07;2.33;;;8.60;99.90;;;;;;5060570;28;20059;-59
2021/05/22 04:10:07;;;;;;;16.88;2.58;;;8.70;99.90;;;;;;5059265;28;20086;-58
2021/05/22 04:12:33;;;;;;;10.55;1.80;;;8.80;99.90;;;;;;5057286;28;20175;-57
2021/05/22 04:14:59;;;;;;;15.48;2.38;;;8.90;99.90;;;;;;5055231;28;20104;-58
2021/05/22 04:17:24;;;;;;;9.73;1.50;;;9.10;99.90;;;;;;5057599;28;20098;-57
2021/05/22 04:19:50;;;;;;;10.90;2.00;;;9.20;99.90;;;;;;5062988;28;20079;-58
2021/05/22 04:22:15;;;;;;;8.38;1.83;;;9.30;99.90;;;;;;5056741;28;20507;-59
2021/05/22 04:24:41;;;;;;;13.30;1.90;;;9.40;99.90;;;;;;5057134;28;20035;-57
2021/05/22 04:27:07;;;;;;;10.15;1.73;;;9.50;99.90;;;;;;5069152;28;20031;-61
2021/05/22 04:29:32;;;;;;;16.40;1.80;;;9.60;99.90;;;;;;5068030;28;20047;-58
2021/05/22 04:31:58;;;;;;;7.15;1.60;;;9.70;99.90;;;;;;5052969;28;20483;-59
2021/05/22 04:34:24;;;;;;;10.70;1.50;;;9.80;99.90;;;;;;5054614;28;20021;-59
2021/05/22 04:36:49;;;;;;;7.00;1.65;;;9.80;99.90;;;;;;5057425;28;20042;-59
2021/05/22 04:39:15;;;;;;;6.97;1.40;;;9.90;99.90;;;;;;5063942;28;20099;-57
2021/05/22 04:41:40;;;;;;;15.45;1.90;;;9.90;99.90;;;;;;5062125;28;20398;-58
2021/05/22 04:44:06;;;;;;;12.32;2.03;;;10.00;99.90;;;;;;5060814;28;20033;-59
2021/05/22 04:46:32;;;;;;;12.15;2.35;;;10.10;99.90;;;;;;5062887;28;20041;-57
2021/05/22 04:48:57;;;;;;;9.82;1.60;;;10.10;99.90;;;;;;5058629;28;20049;-59
2021/05/22 04:51:24;;;;;;;11.50;1.50;;;10.20;99.90;;;;;;5062684;28;20029;-57
2021/05/22 04:53:50;;;;;;;6.85;1.50;;;10.20;99.90;;;;;;5061862;28;20060;-58
2021/05/22 04:56:16;;;;;;;12.32;2.03;;;10.20;99.90;;;;;;5056597;28;20025;-58
2021/05/22 04:58:42;;;;;;;10.13;1.60;;;10.20;99.90;;;;;;5063057;28;20430;-59
2021/05/22 05:01:07;;;;;;;11.32;1.80;;;10.30;99.90;;;;;;5058529;28;20131;-59
2021/05/22 05:03:33;;;;;;;10.82;1.83;;;10.40;99.90;;;;;;5063753;28;20490;-59
2021/05/22 05:05:58;;;;;;;14.10;1.63;;;10.40;99.90;;;;;;5052545;28;20050;-58
2021/05/22 05:08:24;;;;;;;9.15;1.55;;;10.50;99.90;;;;;;5059688;28;20075;-60
2021/05/22 05:10:50;;;;;;;8.68;1.77;;;10.50;99.90;;;;;;5060808;28;20033;-59
2021/05/22 05:13:16;;;;;;;12.30;1.70;;;10.50;99.90;;;;;;5066769;28;20031;-58
2021/05/22 05:15:42;;;;;;;7.57;1.30;;;10.60;99.90;;;;;;5065230;28;20409;-57
2021/05/22 05:18:08;;;;;;;12.73;2.13;;;10.60;99.90;;;;;;5062559;28;20025;-58
2021/05/22 05:20:34;;;;;;;12.88;1.92;;;10.70;99.90;;;;;;5060633;28;20199;-59
2021/05/22 05:22:59;;;;;;;9.63;1.60;;;10.80;99.90;;;;;;5069276;28;20025;-59
2021/05/22 05:25:25;;;;;;;12.32;1.33;;;10.80;99.90;;;;;;5054625;28;20071;-59
2021/05/22 05:27:50;;;;;;;11.35;1.27;;;10.90;99.90;;;;;;5057742;28;20078;-58
2021/05/22 05:30:17;;;;;;;13.55;3.05;;;11.00;99.90;;;;;;5059740;28;20041;-59
2021/05/22 05:32:43;;;;;;;7.20;1.15;;;11.00;99.90;;;;;;5072900;28;20047;-61
2021/05/22 05:35:10;;;;;;;17.17;1.42;;;11.10;99.90;;;;;;5045148;28;20813;-59
2021/05/22 05:37:36;;;;;;;8.25;1.40;;;11.10;99.90;;;;;;5055922;28;20048;-57
2021/05/22 05:40:02;;;;;;;8.98;1.13;;;11.10;99.90;;;;;;5050521;28;20065;-59
2021/05/22 05:42:27;;;;;;;9.02;1.40;;;11.10;99.90;;;;;;5059914;28;20043;-58
2021/05/22 05:44:53;;;;;;;5.30;1.10;;;11.10;99.90;;;;;;5062111;28;20032;-59
2021/05/22 05:47:19;;;;;;;9.07;1.20;;;11.20;99.90;;;;;;5062576;28;20467;-58
2021/05/22 05:49:44;;;;;;;3.97;1.30;;;11.20;99.90;;;;;;5052044;28;20041;-61
2021/05/22 05:52:10;;;;;;;4.32;0.80;;;11.20;99.90;;;;;;5061775;28;20077;-57
2021/05/22 05:54:36;;;;;;;5.70;0.80;;;11.30;99.90;;;;;;5047199;28;20031;-55
2021/05/22 05:57:02;;;;;;;4.50;1.10;;;11.30;99.90;;;;;;5054491;28;20449;-58
2021/05/22 05:59:27;;;;;;;4.15;0.90;;;11.40;99.90;;;;;;5057969;28;20415;-56
2021/05/22 06:01:53;;;;;;;6.10;1.02;;;11.40;99.90;;;;;;5059642;28;20032;-57
2021/05/22 06:04:18;;;;;;;4.38;0.90;;;11.50;99.90;;;;;;5058145;28;20031;-57
2021/05/22 06:06:44;;;;;;;6.72;1.08;;;11.50;99.90;;;;;;5059849;28;20531;-59
2021/05/22 06:09:10;;;;;;;4.18;0.80;;;11.50;99.90;;;;;;5053167;28;20409;-57
2021/05/22 06:11:36;;;;;;;5.82;0.95;;;11.50;99.90;;;;;;5053433;28;20053;-58
2021/05/22 06:14:03;;;;;;;4.10;1.00;;;11.60;99.90;;;;;;5063253;28;20044;-59
2021/05/22 06:16:33;;;;;;;8.48;1.00;;;11.60;99.90;;;;;;5067014;28;20029;-59
2021/05/22 06:18:59;;;;;;;5.63;0.98;;;11.70;99.90;;;;;;5067366;28;20387;-59
2021/05/22 06:21:24;;;;;;;4.35;0.70;;;11.70;99.90;;;;;;5039786;28;20025;-58
2021/05/22 06:23:50;;;;;;;5.13;0.90;;;11.80;99.90;;;;;;5043747;28;20112;-59
2021/05/22 06:26:16;;;;;;;2.00;0.70;;;11.90;99.90;;;;;;5069844;28;20504;-57
2021/05/22 06:28:41;;;;;;;5.03;0.70;;;11.90;99.90;;;;;;5056384;28;20498;-58
2021/05/22 06:31:07;;;;;;;4.22;0.77;;;12.10;99.90;;;;;;5060890;28;20546;-58
2021/05/22 06:33:33;;;;;;;3.55;0.65;;;12.20;99.90;;;;;;5061266;28;20028;-57
2021/05/22 06:35:59;;;;;;;5.78;0.60;;;12.20;99.90;;;;;;5062542;28;20565;-57
2021/05/22 06:38:24;;;;;;;2.28;0.70;;;12.40;99.90;;;;;;5063337;28;20444;-57
2021/05/22 06:40:51;;;;;;;3.28;0.70;;;12.40;99.90;;;;;;5054454;28;20566;-59
2021/05/22 06:43:16;;;;;;;3.03;0.80;;;12.50;99.90;;;;;;5065545;28;20111;-58
2021/05/22 06:45:45;;;;;;;3.40;1.00;;;12.50;99.90;;;;;;5061870;28;20128;-59
2021/05/22 06:48:14;;;;;;;3.42;0.93;;;12.50;99.90;;;;;;5066619;28;20025;-56
2021/05/22 06:50:40;;;;;;;2.45;0.88;;;12.60;99.90;;;;;;5056850;28;20094;-59
2021/05/22 06:53:07;;;;;;;3.70;1.00;;;12.60;99.90;;;;;;5059869;28;20028;-59
2021/05/22 06:55:33;;;;;;;1.13;0.70;;;12.70;99.90;;;;;;5057098;28;20029;-59
2021/05/22 06:57:59;;;;;;;5.03;0.90;;;12.70;99.90;;;;;;5061093;28;20190;-58
2021/05/22 07:00:25;;;;;;;10.00;2.17;;;12.60;99.90;;;;;;5056731;28;21440;-59
2021/05/22 07:02:51;;;;;;;4.30;0.80;;;12.60;99.90;;;;;;5061466;28;20032;-54
2021/05/22 07:05:16;;;;;;;6.68;0.98;;;12.50;99.90;;;;;;5041560;28;20033;-59
2021/05/22 07:07:42;;;;;;;7.38;1.50;;;12.50;99.90;;;;;;5057899;28;20052;-57
2021/05/22 07:10:12;;;;;;;4.18;1.27;;;12.50;99.90;;;;;;5058583;28;20117;-57
2021/05/22 07:12:38;;;;;;;6.25;1.05;;;12.40;99.90;;;;;;5064186;28;20517;-58
2021/05/22 07:15:05;;;;;;;4.60;1.10;;;12.40;99.90;;;;;;5060676;28;20052;-58
2021/05/22 07:17:31;;;;;;;3.38;0.95;;;12.40;99.90;;;;;;5064573;28;20100;-58
2021/05/22 07:19:57;;;;;;;4.30;0.80;;;12.30;99.90;;;;;;5057504;28;20440;-63
2021/05/22 07:22:23;;;;;;;6.78;1.08;;;12.20;99.90;;;;;;5058897;28;20055;-63
2021/05/22 07:24:48;;;;;;;5.25;1.25;;;12.00;99.90;;;;;;5060449;28;20024;-63
2021/05/22 07:27:15;;;;;;;5.18;0.90;;;11.90;99.90;;;;;;5059813;28;20021;-64
2021/05/22 07:29:42;;;;;;;6.18;1.38;;;11.90;99.90;;;;;;5055938;28;20021;-64
2021/05/22 07:32:08;;;;;;;3.40;1.00;;;11.90;99.90;;;;;;5058377;28;20426;-64
2021/05/22 07:34:34;;;;;;;3.15;0.90;;;11.90;99.90;;;;;;5058301;28;20039;-63
2021/05/22 07:36:59;;;;;;;3.10;0.90;;;11.90;99.90;;;;;;5062190;28;20052;-63
2021/05/22 07:39:25;;;;;;;8.55;1.17;;;11.90;99.90;;;;;;5055818;28;20036;-64
2021/05/22 07:41:50;;;;;;;6.15;1.20;;;12.00;99.90;;;;;;5059146;28;20143;-64
2021/05/22 07:44:16;;;;;;;4.70;1.00;;;12.10;99.90;;;;;;5053734;28;20052;-64
2021/05/22 07:46:42;;;;;;;3.15;0.95;;;12.10;99.90;;;;;;5062281;28;20158;-64
2021/05/22 07:49:08;;;;;;;4.32;1.10;;;12.00;99.90;;;;;;5063372;28;20025;-64
2021/05/22 07:51:34;;;;;;;7.35;1.25;;;12.00;99.90;;;;;;5059697;28;20506;-64
2021/05/22 07:54:00;;;;;;;4.47;1.02;;;11.90;99.90;;;;;;5057637;28;20131;-62
2021/05/22 07:56:25;;;;;;;7.45;1.40;;;11.70;99.90;;;;;;5060862;28;20105;-64
2021/05/22 07:58:51;;;;;;;4.38;1.10;;;11.70;99.90;;;;;;5051973;28;20028;-63
2021/05/22 08:01:17;;;;;;;4.88;1.23;;;11.70;99.90;;;;;;5060246;28;20044;-63
2021/05/22 08:03:42;;;;;;;7.15;1.45;;;11.60;99.90;;;;;;5060832;28;20119;-62
2021/05/22 08:06:08;;;;;;;9.30;1.50;;;11.60;99.90;;;;;;5059159;28;20032;-63
2021/05/22 08:08:34;;;;;;;3.20;1.15;;;11.60;99.90;;;;;;5061026;28;20036;-64
2021/05/22 08:10:59;;;;;;;7.00;1.23;;;11.60;99.90;;;;;;5059394;28;20029;-64
2021/05/22 08:13:28;;;;;;;4.13;1.05;;;11.70;99.90;;;;;;5061773;28;20020;-63
2021/05/22 08:15:55;;;;;;;8.93;1.83;;;11.70;99.90;;;;;;5057348;28;20111;-63
2021/05/22 08:18:21;;;;;;;4.68;1.15;;;11.70;99.90;;;;;;5053660;28;20024;-64
2021/05/22 08:20:47;;;;;;;5.00;2.00;;;11.70;99.90;;;;;;5060750;28;20033;-64
2021/05/22 08:23:13;;;;;;;7.05;0.93;;;11.70;99.90;;;;;;5067226;28;20511;-63
2021/05/22 08:25:38;;;;;;;2.45;1.08;;;11.80;99.90;;;;;;5053522;28;20113;-63
2021/05/22 08:28:04;;;;;;;5.15;0.90;;;11.80;99.90;;;;;;5054572;28;20040;-63
2021/05/22 08:30:30;;;;;;;1.95;1.00;;;11.80;99.90;;;;;;5060620;28;20047;-63
2021/05/22 08:32:56;;;;;;;9.25;1.20;;;11.80;99.90;;;;;;5057236;28;20028;-64
2021/05/22 08:35:21;;;;;;;4.20;1.20;;;11.80;99.90;;;;;;5057242;28;20055;-64
2021/05/22 08:37:55;;;;;;;3.25;1.00;;;11.90;99.90;;;;;;5060141;28;20056;-63
2021/05/22 08:40:25;;;;;;;4.80;1.45;;;12.10;99.90;;;;;;5093975;22;20059;-55
2021/05/22 08:42:51;;;;;;;5.88;1.30;;;12.10;99.90;;;;;;5087157;28;20024;-58
2021/05/22 08:45:17;;;;;;;6.68;1.08;;;12.20;99.90;;;;;;5089664;28;20521;-56
2021/05/22 08:47:45;;;;;;;5.45;1.27;;;12.30;99.90;;;;;;5089752;28;20425;-53
2021/05/22 08:50:13;;;;;;;6.53;1.15;;;12.30;99.90;;;;;;5086698;28;20464;-57
2021/05/22 08:52:39;;;;;;;5.35;1.00;;;12.40;99.90;;;;;;5085736;28;20070;-57
2021/05/22 08:55:05;;;;;;;4.78;1.10;;;12.40;99.90;;;;;;5084867;28;20446;-57
2021/05/22 08:57:31;;;;;;;6.97;1.20;;;12.50;99.90;;;;;;5087691;28;20054;-55
2021/05/22 08:59:57;;;;;;;2.55;0.82;;;12.40;99.90;;;;;;5087145;28;20070;-56
2021/05/22 09:02:25;;;;;;;8.68;1.88;;;12.40;99.90;;;;;;5085148;28;20040;-56
2021/05/22 09:05:15;;;;;;;7.07;1.25;;;12.30;99.90;;;;;;5085944;28;20028;-52
2021/05/22 09:07:44;;;;;;;3.60;0.77;;;12.30;99.90;;;;;;5086593;28;20028;-55
2021/05/22 09:10:09;;;;;;;4.43;0.80;;;12.30;99.90;;;;;;5068617;28;20050;-59
2021/05/22 09:12:37;;;;;;;6.13;1.00;;;12.20;99.90;;;;;;5089637;28;20028;-52
2021/05/22 09:15:09;;;;;;;5.85;1.02;;;12.20;99.90;;;;;;5088132;28;20443;-56
2021/05/22 09:17:36;;;;;;;3.75;0.93;;;12.30;99.90;;;;;;5081227;28;20097;-55
2021/05/22 09:20:18;;;;;;;5.07;1.10;;;12.30;99.90;;;;;;5082183;28;20039;-55
2021/05/22 09:22:43;;;;;;;3.13;0.90;;;12.20;99.90;;;;;;5087405;28;20491;-56
2021/05/22 09:25:10;;;;;;;4.50;0.77;;;12.20;99.90;;;;;;5085291;28;20150;-55
2021/05/22 09:27:40;;;;;;;5.60;1.25;;;12.20;99.90;;;;;;5087218;28;20029;-51
2021/05/22 09:30:09;;;;;;;4.95;0.95;;;12.20;99.90;;;;;;5084087;28;20035;-53
2021/05/22 09:32:35;;;;;;;3.17;0.98;;;12.30;99.90;;;;;;5088132;28;20482;-57
2021/05/22 09:35:02;;;;;;;5.72;1.52;;;12.30;99.90;;;;;;5079721;28;20035;-58
2021/05/22 09:37:27;;;;;;;3.88;0.90;;;12.30;99.90;;;;;;5090418;28;20027;-56
2021/05/22 09:39:53;;;;;;;2.90;0.70;;;12.40;99.90;;;;;;5085992;28;20036;-52
2021/05/22 09:42:31;;;;;;;4.10;1.08;;;12.30;99.90;;;;;;5089455;28;20102;-55
2021/05/22 09:44:58;;;;;;;3.67;1.10;;;12.30;99.90;;;;;;5083441;28;20024;-54
2021/05/22 09:47:23;;;;;;;9.82;3.05;;;12.30;99.90;;;;;;5085373;28;20028;-54
2021/05/22 09:49:50;;;;;;;7.20;2.10;;;12.30;99.90;;;;;;5087175;28;20370;-58
2021/05/22 09:52:16;;;;;;;8.38;2.08;;;12.40;99.90;;;;;;5086492;28;20016;-57
2021/05/22 09:54:51;;;;;;;4.28;1.17;;;12.40;99.90;;;;;;5088854;28;20031;-59
2021/05/22 09:57:31;;;;;;;;;;;12.40;99.90;;;;;;5092001;28;20073;-56
2021/05/22 10:00:20;;;;;;;5.85;0.90;;;12.40;99.90;;;;;;5091057;28;19908;-52
2021/05/22 10:02:52;;;;;;;3.40;1.52;;;12.50;99.90;;;;;;5087955;28;20024;-54
2021/05/22 10:05:35;;;;;;;4.10;0.80;;;12.50;99.90;;;;;;5093358;28;20024;-53
2021/05/22 10:08:03;;;;;;;3.58;0.60;;;12.60;99.90;;;;;;5093728;28;20063;-57
2021/05/22 10:10:45;;;;;;;2.15;0.68;;;12.70;99.90;;;;;;5090271;28;20093;-53
2021/05/22 10:13:12;;;;;;;6.45;1.85;;;12.80;99.90;;;;;;5086195;28;20502;-56
2021/05/22 10:15:37;;;;;;;3.25;0.70;;;12.90;99.90;;;;;;5091797;28;20600;-56
2021/05/22 10:18:05;;;;;;;4.30;1.13;;;12.90;99.90;;;;;;5090607;28;20110;-53
2021/05/22 10:20:31;;;;;;;4.28;1.00;;;13.00;99.90;;;;;;5093427;28;20102;-53
2021/05/22 10:22:57;;;;;;;3.88;0.90;;;13.00;99.90;;;;;;5092146;28;20516;-53
2021/05/22 10:25:22;;;;;;;7.07;1.00;;;13.10;99.90;;;;;;5093421;28;20039;-58
2021/05/22 10:27:48;;;;;;;3.15;0.90;;;13.10;99.90;;;;;;5091627;28;20028;-58
2021/05/22 10:30:16;;;;;;;4.07;0.60;;;13.20;99.90;;;;;;5085087;28;20398;-59
2021/05/22 10:32:43;;;;;;;3.53;0.70;;;13.30;99.90;;;;;;5088621;28;20057;-60
2021/05/22 10:35:23;;;;;;;3.72;1.20;;;13.40;99.90;;;;;;5089609;28;20482;-56
2021/05/22 10:37:50;;;;;;;4.03;0.82;;;13.40;99.90;;;;;;5092473;28;20038;-60
2021/05/22 10:40:17;;;;;;;6.68;0.82;;;13.50;99.90;;;;;;5092270;28;20036;-54
2021/05/22 10:42:53;;;;;;;5.10;0.82;;;13.40;99.90;;;;;;5092144;28;20451;-57
2021/05/22 10:45:31;;;;;;;4.72;0.95;;;13.50;99.90;;;;;;5085824;28;20074;-56
2021/05/22 10:47:59;;;;;;;6.82;1.00;;;13.50;99.90;;;;;;5087992;28;20042;-57
2021/05/22 10:50:43;;;;;;;4.32;1.38;;;13.60;99.90;;;;;;5087118;28;20028;-54
2021/05/22 10:53:25;;;;;;;5.83;1.10;;;13.60;99.90;;;;;;5086864;28;20051;-53
2021/05/22 10:56:16;;;;;;;7.32;1.23;;;13.70;99.90;;;;;;5088234;28;20109;-53
2021/05/22 10:58:57;;;;;;;5.28;0.90;;;13.80;99.90;;;;;;5081392;28;20028;-56
2021/05/22 11:01:26;;;;;;;6.78;0.98;;;13.90;99.90;;;;;;5088236;28;20060;-57
2021/05/22 11:04:17;;;;;;;2.42;0.98;;;13.90;99.90;;;;;;5085653;28;20032;-55
2021/05/22 11:06:47;;;;;;;4.85;0.80;;;13.80;99.90;;;;;;5088700;28;20516;-56
2021/05/22 11:09:28;;;;;;;7.10;1.25;;;13.80;99.90;;;;;;5081535;28;20438;-59
2021/05/22 11:11:55;;;;;;;7.43;1.20;;;13.80;99.90;;;;;;5089807;28;20024;-56
2021/05/22 11:14:34;;;;;;;9.95;0.98;;;13.70;99.90;;;;;;5087903;28;20050;-58
2021/05/22 11:17:00;;;;;;;4.72;0.80;;;13.70;99.90;;;;;;5086447;28;20031;-56
2021/05/22 11:19:26;;;;;;;1.73;0.70;;;13.70;99.90;;;;;;5088470;28;20111;-54
2021/05/22 11:22:14;;;;;;;3.97;1.00;;;13.70;99.90;;;;;;5088481;28;20494;-57
2021/05/22 11:24:59;;;;;;;6.20;1.05;;;13.90;99.90;;;;;;5086787;28;20028;-57
2021/05/22 11:27:48;;;;;;;6.35;1.30;;;14.00;99.90;;;;;;5087196;28;20031;-55
2021/05/22 11:30:15;;;;;;;3.50;0.85;;;14.00;99.90;;;;;;5086705;28;20032;-54
2021/05/22 11:32:48;;;;;;;5.00;0.88;;;13.90;99.90;;;;;;5085892;28;20231;-53
2021/05/22 11:35:26;;;;;;;3.20;0.90;;;14.00;99.90;;;;;;5086814;28;20016;-54
2021/05/22 11:38:18;;;;;;;4.88;0.93;;;14.10;99.90;;;;;;5086511;28;20047;-57
2021/05/22 11:40:44;;;;;;;2.28;0.75;;;14.30;99.90;;;;;;5077210;28;20044;-56
2021/05/22 11:43:12;;;;;;;2.20;1.00;;;14.50;99.90;;;;;;5085948;28;20020;-56
2021/05/22 11:45:59;;;;;;;5.28;1.13;;;14.50;99.90;;;;;;5090471;28;20478;-55
2021/05/22 11:48:35;;;;;;;5.78;1.20;;;14.50;99.90;;;;;;5086000;28;20089;-54
2021/05/22 11:51:05;;;;;;;3.70;0.88;;;14.50;99.90;;;;;;5088138;28;20034;-57
2021/05/22 11:53:31;;;;;;;4.22;1.60;;;14.60;99.90;;;;;;5089634;28;20028;-57
2021/05/22 11:55:58;;;;;;;4.57;0.60;;;14.50;99.90;;;;;;5088898;28;20278;-53
2021/05/22 11:58:24;;;;;;;11.45;1.15;;;14.50;99.90;;;;;;5089822;28;20386;-57
2021/05/22 12:00:50;;;;;;;5.25;1.00;;;14.20;99.90;;;;;;5087558;28;20027;-54
2021/05/22 12:03:27;;;;;;;5.13;0.95;;;14.10;99.90;;;;;;5088239;28;20024;-56
2021/05/22 12:05:54;;;;;;;4.93;1.23;;;14.20;99.90;;;;;;5088344;28;20058;-54
2021/05/22 12:08:23;;;;;;;6.75;1.40;;;14.10;99.90;;;;;;5088389;28;20056;-53
2021/05/22 12:10:50;;;;;;;5.72;1.15;;;14.10;99.90;;;;;;5082257;28;20039;-55
2021/05/22 12:13:16;;;;;;;4.15;0.90;;;14.10;99.90;;;;;;5088913;28;20420;-53
2021/05/22 12:15:44;;;;;;;3.58;1.02;;;14.10;99.90;;;;;;5087527;28;20049;-58
2021/05/22 12:18:11;;;;;;;4.90;1.05;;;14.20;99.90;;;;;;5085325;28;20045;-54
2021/05/22 12:20:48;;;;;;;5.43;1.02;;;14.10;99.90;;;;;;5089107;28;20028;-57
2021/05/22 12:23:32;;;;;;;5.47;1.13;;;14.20;99.90;;;;;;5085569;28;20107;-58
2021/05/22 12:26:00;;;;;;;5.18;1.05;;;14.10;99.90;;;;;;5084816;28;20028;-56
2021/05/22 12:28:26;;;;;;;6.63;1.00;;;14.10;99.90;;;;;;5089706;28;20032;-55
2021/05/22 12:30:53;;;;;;;6.65;1.20;;;14.20;99.90;;;;;;5089382;28;20111;-57
2021/05/22 12:33:19;;;;;;;7.05;1.50;;;14.20;99.90;;;;;;5090958;28;20477;-56
2021/05/22 12:35:47;;;;;;;4.60;1.38;;;14.30;99.90;;;;;;5085853;28;20063;-55
2021/05/22 12:38:15;;;;;;;5.80;0.85;;;14.40;99.90;;;;;;5088815;28;20032;-56
2021/05/22 12:40:50;;;;;;;7.53;1.70;;;14.50;99.90;;;;;;5088304;28;20046;-57
2021/05/22 12:43:16;;;;;;;7.80;1.58;;;14.40;99.90;;;;;;5089000;28;20032;-56
2021/05/22 12:45:44;;;;;;;12.15;1.02;;;14.50;99.90;;;;;;5089853;28;20401;-54
2021/05/22 12:48:25;;;;;;;6.47;1.20;;;14.40;99.90;;;;;;5082880;28;20144;-56
2021/05/22 12:50:52;;;;;;;9.52;1.08;;;14.30;99.90;;;;;;5082971;28;20378;-54
2021/05/22 12:53:31;;;;;;;2.55;0.90;;;14.30;99.90;;;;;;5087963;28;20059;-53
2021/05/22 12:56:05;;;;;;;5.40;1.10;;;14.30;99.90;;;;;;5090110;28;20035;-55